createdAt,value
2022-10-05T00:02:23.948Z,53.80
2022-10-05T00:04:56.416Z,52.60
2022-10-05T00:07:24.986Z,54.30
2022-10-05T00:09:56.971Z,59.90
2022-10-05T00:12:25.164Z,51.40
2022-10-05T00:14:55.158Z,60.70
2022-10-05T00:17:24.351Z,55.10
2022-10-05T00:19:52.062Z,53.80
2022-10-05T00:22:24.809Z,52.80
2022-10-05T00:24:56.546Z,55.30
2022-10-05T00:27:26.811Z,55.80
2022-10-05T00:29:58.602Z,49.70
2022-10-05T00:32:25.142Z,57.80
2022-10-05T00:34:52.090Z,49.40
2022-10-05T00:37:18.735Z,59.20
2022-10-05T00:39:46.120Z,55.50
2022-10-05T00:42:40.065Z,54.00
2022-10-05T00:45:16.190Z,54.80
2022-10-05T00:47:42.620Z,55.90
2022-10-05T00:50:50.999Z,56.60
2022-10-05T00:53:30.038Z,53.50
2022-10-05T00:56:07.228Z,51.80
2022-10-05T00:59:19.131Z,48.40
2022-10-05T01:02:03.006Z,53.80
2022-10-05T01:04:42.992Z,53.00
2022-10-05T01:07:33.867Z,52.40
2022-10-05T01:10:13.679Z,45.40
2022-10-05T01:12:52.328Z,47.30
2022-10-05T01:15:32.796Z,47.10
2022-10-05T01:18:25.677Z,43.80
2022-10-05T01:20:54.962Z,46.00
2022-10-05T01:23:27.218Z,44.60
2022-10-05T01:26:21.550Z,52.20
2022-10-05T01:28:57.830Z,44.10
2022-10-05T01:31:54.782Z,48.70
2022-10-05T01:34:27.016Z,39.00
2022-10-05T01:36:56.544Z,45.90
2022-10-05T01:39:49.136Z,47.80
2022-10-05T01:42:33.771Z,49.10
2022-10-05T01:45:45.394Z,48.20
2022-10-05T01:48:30.752Z,45.40
2022-10-05T01:51:16.030Z,49.30
2022-10-05T01:54:08.684Z,44.80
2022-10-05T01:56:53.858Z,46.80
2022-10-05T01:59:29.920Z,40.60
2022-10-05T02:02:03.843Z,46.60
2022-10-05T02:07:33.882Z,49.80
2022-10-05T02:10:08.922Z,44.10
2022-10-05T02:12:38.368Z,49.80
2022-10-05T02:15:16.245Z,45.60
2022-10-05T02:17:50.191Z,44.60
2022-10-05T02:20:29.977Z,42.50
2022-10-05T02:23:02.691Z,47.50
2022-10-05T02:25:35.173Z,40.10
2022-10-05T02:28:08.914Z,34.00
2022-10-05T02:30:43.271Z,37.50
2022-10-05T02:33:23.480Z,39.40
2022-10-05T02:35:50.015Z,33.80
2022-10-05T02:38:32.836Z,37.40
2022-10-05T02:41:15.220Z,35.50
2022-10-05T02:43:56.463Z,31.40
2022-10-05T02:46:57.163Z,37.40
2022-10-05T02:49:42.309Z,29.20
2022-10-05T02:52:31.011Z,30.80
2022-10-05T02:55:31.395Z,40.20
2022-10-05T02:58:04.827Z,34.80
2022-10-05T03:00:38.021Z,39.00
2022-10-05T03:03:08.492Z,38.50
2022-10-05T03:05:41.626Z,26.50
2022-10-05T03:08:17.806Z,40.00
2022-10-05T03:11:25.995Z,37.60
2022-10-05T03:14:21.683Z,34.00
2022-10-05T03:17:14.542Z,31.90
2022-10-05T03:20:35.275Z,36.10
2022-10-05T03:23:04.566Z,32.60
2022-10-05T03:25:40.328Z,33.50
2022-10-05T03:28:21.793Z,34.50
2022-10-05T03:30:59.991Z,32.40
2022-10-05T03:33:29.651Z,33.60
2022-10-05T03:36:03.754Z,38.40
2022-10-05T03:38:48.931Z,34.90
2022-10-05T03:41:15.372Z,32.90
2022-10-05T03:43:59.015Z,33.90
2022-10-05T03:46:43.838Z,30.00
2022-10-05T03:49:19.477Z,30.80
2022-10-05T03:51:51.063Z,34.00
2022-10-05T03:54:25.007Z,33.90
2022-10-05T03:56:58.364Z,40.50
2022-10-05T03:59:34.111Z,32.80
2022-10-05T04:02:04.802Z,33.50
2022-10-05T04:04:48.875Z,32.70
2022-10-05T04:07:27.782Z,39.70
2022-10-05T04:09:55.895Z,50.00
2022-10-05T04:12:27.521Z,36.00
2022-10-05T04:14:59.324Z,34.10
2022-10-05T04:17:40.872Z,31.70
2022-10-05T04:20:35.583Z,39.80
2022-10-05T04:23:21.369Z,44.40
2022-10-05T04:25:54.059Z,35.90
2022-10-05T04:28:20.653Z,31.90
2022-10-05T04:30:51.173Z,30.00
2022-10-05T04:33:21.389Z,34.50
2022-10-05T04:36:00.193Z,30.50
2022-10-05T04:38:26.566Z,35.40
2022-10-05T04:41:08.421Z,35.20
2022-10-05T04:43:59.645Z,30.90
2022-10-05T04:46:52.583Z,39.40
2022-10-05T04:49:34.013Z,34.20
2022-10-05T04:52:19.785Z,35.00
2022-10-05T04:55:07.422Z,36.20
2022-10-05T04:57:55.235Z,42.20
2022-10-05T05:00:24.703Z,34.60
2022-10-05T05:03:09.873Z,36.60
2022-10-05T05:06:15.888Z,34.30
2022-10-05T05:09:12.133Z,31.60
2022-10-05T05:12:09.836Z,37.20
2022-10-05T05:14:46.822Z,42.80
2022-10-05T05:17:46.847Z,39.30
2022-10-05T05:20:28.439Z,39.50
2022-10-05T05:26:10.169Z,41.50
2022-10-05T05:28:50.224Z,47.00
2022-10-05T05:31:32.627Z,52.80
2022-10-05T05:34:11.262Z,59.70
2022-10-05T05:36:50.601Z,54.00
2022-10-05T05:39:24.444Z,57.40
2022-10-05T05:41:57.194Z,53.10
2022-10-05T05:44:30.182Z,45.90
2022-10-05T05:47:09.171Z,50.70
2022-10-05T05:49:48.494Z,50.40
2022-10-05T05:52:41.773Z,48.70
2022-10-05T05:55:13.508Z,45.10
2022-10-05T05:58:15.147Z,43.70
2022-10-05T06:00:52.536Z,34.10
2022-10-05T06:03:30.396Z,34.60
2022-10-05T06:06:09.726Z,31.60
2022-10-05T06:08:41.913Z,30.80
2022-10-05T06:11:21.811Z,29.40
2022-10-05T06:13:49.139Z,28.20
2022-10-05T06:16:25.676Z,27.50
2022-10-05T06:19:02.954Z,25.20
2022-10-05T06:21:41.662Z,29.10
2022-10-05T06:24:18.136Z,22.80
2022-10-05T06:27:00.778Z,22.20
2022-10-05T06:29:57.636Z,24.80
2022-10-05T06:32:55.442Z,24.10
2022-10-05T06:35:43.933Z,24.20
2022-10-05T06:38:45.085Z,21.90
2022-10-05T06:42:01.293Z,25.00
2022-10-05T06:44:44.317Z,21.30
2022-10-05T06:47:49.982Z,23.70
2022-10-05T06:50:32.835Z,26.70
2022-10-05T06:53:05.318Z,24.20
2022-10-05T06:55:50.453Z,28.00
2022-10-05T06:58:39.009Z,23.60
2022-10-05T07:01:16.271Z,28.80
2022-10-05T07:03:58.002Z,21.90
2022-10-05T07:06:49.368Z,24.90
2022-10-05T07:09:49.658Z,18.20
2022-10-05T07:12:26.255Z,18.50
2022-10-05T07:15:14.483Z,20.40
2022-10-05T07:17:58.328Z,17.60
2022-10-05T07:20:30.240Z,18.00
2022-10-05T07:23:38.111Z,18.40
2022-10-05T07:26:12.635Z,18.60
2022-10-05T07:29:12.665Z,16.10
2022-10-05T07:31:57.636Z,19.00
2022-10-05T07:34:36.257Z,18.10
2022-10-05T07:37:31.497Z,21.10
2022-10-05T07:40:11.529Z,21.00
2022-10-05T07:43:00.004Z,19.30
2022-10-05T07:45:50.546Z,19.70
2022-10-05T07:48:27.541Z,20.70
2022-10-05T07:50:53.910Z,17.20
2022-10-05T07:53:30.367Z,19.30
2022-10-05T07:56:05.016Z,15.70
2022-10-05T07:58:37.240Z,13.10
2022-10-05T08:01:22.561Z,13.20
2022-10-05T08:04:10.704Z,14.50
2022-10-05T08:06:54.497Z,14.50
2022-10-05T08:09:39.396Z,15.10
2022-10-05T08:12:43.874Z,16.60
2022-10-05T08:15:20.248Z,10.80
2022-10-05T08:18:01.458Z,13.80
2022-10-05T08:20:50.008Z,12.70
2022-10-05T08:23:25.639Z,12.90
2022-10-05T08:26:04.961Z,13.00
2022-10-05T08:28:45.474Z,13.50
2022-10-05T08:31:25.198Z,15.00
2022-10-05T08:34:22.279Z,14.90
2022-10-05T08:36:55.150Z,12.20
2022-10-05T08:39:24.964Z,12.30
2022-10-05T08:42:05.122Z,14.00
2022-10-05T08:44:53.063Z,12.80
2022-10-05T08:47:40.600Z,10.60
2022-10-05T08:50:30.617Z,11.30
2022-10-05T08:53:24.162Z,15.40
2022-10-05T08:56:03.125Z,8.50
2022-10-05T08:58:40.499Z,9.90
2022-10-05T09:01:18.637Z,7.30
2022-10-05T09:04:19.627Z,8.00
2022-10-05T09:06:55.418Z,10.80
2022-10-05T09:09:50.013Z,9.60
2022-10-05T09:12:35.699Z,11.00
2022-10-05T09:15:34.037Z,10.70
2022-10-05T09:18:03.499Z,11.00
2022-10-05T09:20:39.461Z,8.80
2022-10-05T09:23:27.102Z,11.10
2022-10-05T09:26:07.261Z,9.60
2022-10-05T09:29:00.219Z,9.00
2022-10-05T09:31:26.660Z,7.60
2022-10-05T09:34:27.593Z,10.90
2022-10-05T09:37:23.125Z,9.70
2022-10-05T09:40:28.475Z,10.60
2022-10-05T09:43:05.257Z,7.10
2022-10-05T09:46:12.035Z,6.50
2022-10-05T09:49:03.675Z,8.30
2022-10-05T09:51:51.305Z,8.60
2022-10-05T09:54:48.960Z,10.10
2022-10-05T09:57:43.599Z,8.20
2022-10-05T10:00:22.558Z,9.00
2022-10-05T10:03:21.266Z,9.80
2022-10-05T10:06:12.975Z,9.70
2022-10-05T10:08:48.302Z,4.40
2022-10-05T10:11:36.958Z,9.90
2022-10-05T10:14:45.067Z,9.60
2022-10-05T10:17:29.778Z,11.40
2022-10-05T10:20:19.722Z,10.90
2022-10-05T10:23:07.867Z,6.10
2022-10-05T10:25:56.238Z,4.20
2022-10-05T10:28:50.924Z,4.20
2022-10-05T10:31:37.762Z,3.40
2022-10-05T10:34:23.220Z,4.50
2022-10-05T10:37:07.069Z,5.40
2022-10-05T10:39:59.206Z,5.80
2022-10-05T10:42:47.043Z,4.00
2022-10-05T10:45:39.059Z,4.00
2022-10-05T10:48:28.669Z,4.80
2022-10-05T10:51:01.170Z,4.50
2022-10-05T10:54:05.464Z,5.30
2022-10-05T10:56:53.506Z,5.00
2022-10-05T10:59:38.416Z,4.60
2022-10-05T11:02:23.734Z,4.20
2022-10-05T11:05:17.923Z,5.60
2022-10-05T11:08:23.050Z,6.70
2022-10-05T11:11:19.617Z,4.00
2022-10-05T11:14:22.226Z,4.80
2022-10-05T11:17:13.199Z,4.80
2022-10-05T11:20:02.983Z,5.00
2022-10-05T11:25:29.502Z,6.50
2022-10-05T11:28:15.146Z,6.90
2022-10-05T11:30:56.792Z,4.50
2022-10-05T11:33:57.477Z,4.80
2022-10-05T11:36:52.241Z,4.50
2022-10-05T11:39:44.472Z,5.40
2022-10-05T11:42:17.053Z,3.20
2022-10-05T11:44:52.404Z,7.00
2022-10-05T11:47:37.688Z,5.30
2022-10-05T11:50:23.984Z,5.30
2022-10-05T11:53:15.037Z,4.80
2022-10-05T11:55:50.453Z,9.70
2022-10-05T11:58:26.164Z,3.90
2022-10-05T12:01:17.124Z,3.60
2022-10-05T12:03:46.399Z,4.80
2022-10-05T12:06:31.198Z,5.10
2022-10-05T12:09:12.984Z,5.90
2022-10-05T12:11:58.231Z,5.60
2022-10-05T12:15:00.648Z,5.50
2022-10-05T12:17:33.657Z,6.80
2022-10-05T12:20:07.230Z,4.00
2022-10-05T12:22:41.782Z,4.30
2022-10-05T12:25:30.854Z,5.60
2022-10-05T12:28:03.453Z,4.40
2022-10-05T12:31:07.773Z,5.20
2022-10-05T12:33:46.185Z,3.80
2022-10-05T12:37:05.041Z,3.90
2022-10-05T12:39:58.041Z,5.20
2022-10-05T12:42:33.412Z,5.80
2022-10-05T12:45:26.660Z,5.40
2022-10-05T12:48:39.877Z,6.70
2022-10-05T12:51:11.989Z,2.70
2022-10-05T12:53:59.415Z,3.90
2022-10-05T12:56:38.087Z,4.90
2022-10-05T12:59:35.039Z,6.00
2022-10-05T13:02:07.337Z,5.90
2022-10-05T13:04:59.066Z,6.00
2022-10-05T13:07:47.492Z,7.10
2022-10-05T13:10:23.124Z,5.90
2022-10-05T13:13:06.097Z,3.20
2022-10-05T13:16:01.612Z,3.40
2022-10-05T13:18:57.007Z,4.90
2022-10-05T13:21:33.640Z,6.40
2022-10-05T13:24:06.915Z,3.70
2022-10-05T13:26:37.631Z,5.70
2022-10-05T13:29:54.625Z,7.30
2022-10-05T13:32:43.815Z,5.30
2022-10-05T13:35:28.993Z,5.30
2022-10-05T13:38:34.047Z,5.20
2022-10-05T13:41:24.018Z,5.60
2022-10-05T13:44:00.020Z,5.50
2022-10-05T13:46:38.819Z,5.80
2022-10-05T13:49:32.775Z,5.70
2022-10-05T13:52:08.368Z,4.10
2022-10-05T13:54:34.784Z,5.20
2022-10-05T13:57:04.106Z,4.70
2022-10-05T13:59:37.875Z,5.90
2022-10-05T14:02:08.716Z,6.40
2022-10-05T14:04:44.205Z,6.40
2022-10-05T14:07:29.772Z,3.90
2022-10-05T14:09:57.504Z,10.80
2022-10-05T14:12:26.674Z,4.70
2022-10-05T14:14:58.330Z,4.30
2022-10-05T14:17:33.784Z,5.10
2022-10-05T14:20:03.321Z,5.40
2022-10-05T14:22:29.937Z,4.90
2022-10-05T14:25:02.315Z,10.00
2022-10-05T14:27:31.301Z,5.60
2022-10-05T14:30:12.875Z,10.30
2022-10-05T14:32:53.578Z,6.40
2022-10-05T14:38:01.092Z,7.10
2022-10-05T14:40:36.480Z,7.60
2022-10-05T14:43:15.164Z,7.30
2022-10-05T14:46:16.368Z,8.00
2022-10-05T14:48:45.315Z,11.00
2022-10-05T14:51:31.550Z,12.70
2022-10-05T14:54:01.062Z,17.00
2022-10-05T14:56:36.582Z,8.50
2022-10-05T14:59:20.428Z,11.70
2022-10-05T15:02:24.976Z,12.80
2022-10-05T15:05:07.679Z,14.50
2022-10-05T15:07:41.419Z,12.10
2022-10-05T15:10:43.009Z,14.00
2022-10-05T15:13:15.960Z,9.70
2022-10-05T15:15:56.712Z,9.90
2022-10-05T15:18:38.283Z,12.60
2022-10-05T15:21:36.358Z,21.40
2022-10-05T15:24:13.470Z,16.10
2022-10-05T15:26:55.635Z,11.60
2022-10-05T15:29:52.407Z,24.00
2022-10-05T15:32:47.539Z,11.20
2022-10-05T15:35:35.787Z,10.80
2022-10-05T15:38:11.136Z,9.90
2022-10-05T15:40:45.148Z,16.00
2022-10-05T15:43:15.585Z,21.70
2022-10-05T15:45:52.966Z,16.60
2022-10-05T15:48:35.434Z,14.80
2022-10-05T15:51:27.558Z,32.30
2022-10-05T15:54:09.329Z,20.30
2022-10-05T15:56:40.984Z,16.00
2022-10-05T15:59:35.023Z,16.50
2022-10-05T16:02:07.525Z,26.20
2022-10-05T16:04:41.041Z,14.90
2022-10-05T16:07:17.355Z,14.30
2022-10-05T16:09:52.920Z,30.00
2022-10-05T16:12:29.541Z,38.20
2022-10-05T16:15:14.751Z,46.20
2022-10-05T16:18:04.632Z,44.00
2022-10-05T16:20:53.266Z,44.40
2022-10-05T16:23:44.309Z,40.30
2022-10-05T16:26:49.343Z,50.00
2022-10-05T16:29:56.332Z,60.80
2022-10-05T16:32:30.754Z,78.30
2022-10-05T16:35:25.340Z,58.40
2022-10-05T16:38:19.445Z,55.30
2022-10-05T16:41:11.894Z,52.20
2022-10-05T16:43:57.971Z,47.20
2022-10-05T16:46:39.997Z,65.70
2022-10-05T16:49:25.216Z,42.80
2022-10-05T16:51:57.961Z,47.90
2022-10-05T16:54:28.481Z,55.10
2022-10-05T16:57:03.473Z,47.60
2022-10-05T16:59:59.514Z,48.80
2022-10-05T17:02:56.923Z,49.30
2022-10-05T17:05:36.070Z,68.90
2022-10-05T17:08:26.886Z,55.10
2022-10-05T17:11:05.749Z,109.10
2022-10-05T17:14:10.598Z,53.50
2022-10-05T17:16:46.207Z,46.20
2022-10-05T17:19:41.998Z,52.20
2022-10-05T17:22:30.464Z,47.90
2022-10-05T17:25:12.260Z,51.60
2022-10-05T17:27:56.980Z,53.00
2022-10-05T17:30:29.849Z,51.10
2022-10-05T17:33:13.448Z,50.70
2022-10-05T17:35:55.495Z,52.20
2022-10-05T17:38:23.758Z,53.50
2022-10-05T17:41:11.516Z,51.90
2022-10-05T17:43:38.559Z,51.70
2022-10-05T17:46:09.930Z,61.10
2022-10-05T17:48:48.634Z,67.50
2022-10-05T17:51:30.331Z,63.90
2022-10-05T17:53:58.156Z,56.10
2022-10-05T17:56:24.675Z,81.70
2022-10-05T17:58:51.083Z,64.20
2022-10-05T18:01:30.248Z,70.40
2022-10-05T18:04:11.989Z,83.20
2022-10-05T18:06:57.093Z,87.90
2022-10-05T18:09:23.634Z,70.00
2022-10-05T18:12:23.968Z,67.60
2022-10-05T18:14:53.176Z,77.00
2022-10-05T18:17:43.571Z,63.70
2022-10-05T18:20:25.267Z,51.20
2022-10-05T18:22:54.224Z,46.80
2022-10-05T18:25:44.871Z,51.10
2022-10-05T18:28:39.393Z,51.10
2022-10-05T18:31:39.154Z,52.50
2022-10-05T18:34:30.822Z,67.70
2022-10-05T18:37:31.190Z,77.10
2022-10-05T18:40:39.683Z,80.90
2022-10-05T18:43:21.562Z,71.00
2022-10-05T18:45:54.064Z,70.80
2022-10-05T18:48:35.251Z,64.10
2022-10-05T18:51:23.491Z,59.30
2022-10-05T18:54:11.553Z,77.10
2022-10-05T18:56:44.728Z,71.20
2022-10-05T18:59:47.625Z,58.80
2022-10-05T19:02:33.898Z,71.80
2022-10-05T19:05:03.438Z,67.50
2022-10-05T19:07:44.620Z,65.30
2022-10-05T19:10:16.998Z,51.50
2022-10-05T19:13:01.354Z,55.80
2022-10-05T19:15:43.350Z,51.70
2022-10-05T19:18:40.826Z,49.60
2022-10-05T19:21:15.528Z,46.40
2022-10-05T19:23:57.158Z,40.40
2022-10-05T19:26:52.282Z,38.10
2022-10-05T19:30:00.479Z,45.70
2022-10-05T19:32:42.075Z,44.00
2022-10-05T19:35:11.688Z,42.70
2022-10-05T19:38:03.217Z,43.40
2022-10-05T19:40:47.164Z,46.20
2022-10-05T19:43:40.975Z,46.80
2022-10-05T19:46:27.382Z,43.10
2022-10-05T19:48:54.711Z,43.80
2022-10-05T19:51:24.020Z,47.40
2022-10-05T19:53:52.454Z,51.40
2022-10-05T19:56:21.713Z,47.50
2022-10-05T19:58:49.937Z,48.10
2022-10-05T20:01:34.805Z,52.10
2022-10-05T20:04:01.409Z,49.70
2022-10-05T20:06:28.209Z,49.70
2022-10-05T20:08:59.190Z,52.10
2022-10-05T20:11:27.581Z,43.30
2022-10-05T20:13:53.968Z,45.40
2022-10-05T20:16:26.487Z,48.90
2022-10-05T20:18:53.516Z,42.00
2022-10-05T20:21:52.417Z,46.30
2022-10-05T20:24:18.896Z,39.60
2022-10-05T20:26:46.868Z,48.10
2022-10-05T20:29:13.482Z,46.00
2022-10-05T20:31:39.946Z,38.60
2022-10-05T20:34:06.483Z,38.30
2022-10-05T20:36:33.024Z,36.30
2022-10-05T20:38:59.540Z,29.10
2022-10-05T20:41:26.095Z,29.10
2022-10-05T20:43:52.588Z,29.00
2022-10-05T20:46:19.096Z,27.00
2022-10-05T20:48:45.625Z,25.30
2022-10-05T20:51:12.117Z,29.80
2022-10-05T20:53:38.611Z,30.00
2022-10-05T20:56:05.642Z,40.50
2022-10-05T20:58:32.126Z,51.40
2022-10-05T21:00:58.762Z,49.60
2022-10-05T21:03:25.366Z,49.90
2022-10-05T21:05:51.907Z,45.80
2022-10-05T21:08:18.448Z,53.20
2022-10-05T21:10:44.884Z,50.20
2022-10-05T21:13:11.442Z,51.20
2022-10-05T21:15:38.067Z,51.10
2022-10-05T21:18:04.606Z,44.90
2022-10-05T21:20:31.149Z,40.50
2022-10-05T21:22:57.690Z,40.60
2022-10-05T21:25:24.181Z,45.80
2022-10-05T21:27:50.768Z,41.90
2022-10-05T21:30:17.427Z,43.90
2022-10-05T21:32:44.816Z,45.80
2022-10-05T21:35:12.857Z,50.60
2022-10-05T21:37:39.396Z,48.90
2022-10-05T21:40:06.245Z,32.90
2022-10-05T21:42:32.992Z,35.90
2022-10-05T21:44:59.475Z,39.20
2022-10-05T21:47:26.023Z,38.80
2022-10-05T21:49:52.772Z,37.40
2022-10-05T21:52:20.221Z,35.80
2022-10-05T21:54:46.932Z,35.30
2022-10-05T21:57:13.777Z,36.60
2022-10-05T21:59:40.757Z,30.20
2022-10-05T22:02:07.268Z,34.20
2022-10-05T22:04:33.935Z,33.40
2022-10-05T22:07:00.525Z,33.60
2022-10-05T22:09:27.091Z,37.10
2022-10-05T22:11:53.634Z,37.20
2022-10-05T22:14:20.172Z,32.60
2022-10-05T22:16:46.741Z,44.60
2022-10-05T22:19:18.175Z,34.20
2022-10-05T22:24:11.120Z,41.40
2022-10-05T22:26:38.922Z,46.00
2022-10-05T22:29:05.671Z,45.40
2022-10-05T22:31:32.495Z,50.20
2022-10-05T22:33:59.166Z,40.70
2022-10-05T22:36:25.940Z,40.60
2022-10-05T22:38:52.419Z,37.00
2022-10-05T22:41:19.298Z,37.10
2022-10-05T22:43:47.478Z,40.90
2022-10-05T22:46:14.203Z,32.60
2022-10-05T22:48:40.967Z,37.80
2022-10-05T22:51:07.904Z,35.70
2022-10-05T22:53:35.184Z,36.60
2022-10-05T22:56:10.436Z,32.00
2022-10-05T22:58:37.398Z,30.00
2022-10-05T23:01:06.630Z,35.00
2022-10-05T23:03:33.936Z,33.10
2022-10-05T23:06:03.714Z,31.10
2022-10-05T23:08:31.981Z,34.10
2022-10-05T23:11:13.474Z,29.00
2022-10-05T23:13:40.679Z,32.60
2022-10-05T23:16:09.600Z,32.00
2022-10-05T23:18:38.140Z,36.00
2022-10-05T23:21:05.969Z,31.10
2022-10-05T23:23:32.474Z,32.60
2022-10-05T23:26:00.731Z,31.00
2022-10-05T23:28:29.249Z,29.60
2022-10-05T23:31:04.762Z,32.90
2022-10-05T23:33:31.436Z,32.80
2022-10-05T23:36:02.890Z,32.80
2022-10-05T23:38:30.279Z,28.40
2022-10-05T23:40:57.205Z,31.80
2022-10-05T23:43:23.714Z,30.20
2022-10-05T23:45:50.721Z,32.30
2022-10-05T23:48:17.226Z,33.90
2022-10-05T23:50:46.428Z,28.80
2022-10-05T23:53:13.789Z,28.30
2022-10-05T23:55:40.232Z,32.00
2022-10-05T23:58:06.968Z,35.90
